Time;durP1;ratioP1;P1;durP2;ratioP2;P2;SDS_P1;SDS_P2;PMS_P1;PMS_P2;Temp;Humidity;BMP_temperature;BMP_pressure;BME280_temperature;BME280_humidity;BME280_pressure;Samples;Min_cycle;Max_cycle;Signal;HPM_P1;HPM_P2
2022/07/01 00:01:45;;;;;;;;;;;;;;;;;;5068226;28;1414;-76
2022/07/01 00:04:11;;;;;;;;;;;;;;;;;;5073800;28;1918;-75
2022/07/01 00:06:38;;;;;;;;;;;;;;;;;;5073636;28;1132;-76
2022/07/01 00:09:04;;;;;;;;;;;;;;;;;;5074047;28;1135;-76
2022/07/01 00:11:30;;;;;;;;;;;;;;;;;;5073820;28;770;-76
2022/07/01 00:13:57;;;;;;;;;;;;;;;;;;5089217;22;2077;-71
2022/07/01 00:16:23;;;;;;;;;;;;;;;;;;5091899;28;1334;-71
2022/07/01 00:18:50;;;;;;;;;;;;;;;;;;5093818;28;1047;-71
2022/07/01 00:21:16;;;;;;;;;;;;;;;;;;5093927;28;997;-71
2022/07/01 00:23:43;;;;;;;;;;;;;;;;;;5093685;28;1914;-70
2022/07/01 00:26:09;;;;;;;;;;;;;;;;;;5091972;28;1226;-70
2022/07/01 00:28:35;;;;;;;;;;;;;;;;;;5092486;28;1188;-71
2022/07/01 00:31:02;;;;;;;;;;;;;;;;;;5093638;28;1060;-71
2022/07/01 00:33:28;;;;;;;;;;;;;;;;;;5093779;28;1323;-71
2022/07/01 00:35:56;;;;;;;;;;;;;;;;;;5092559;28;1127;-71
2022/07/01 00:38:22;;;;;;;;;;;;;;;;;;5092826;28;1102;-71
2022/07/01 00:40:51;;;;;;;;;;;;;;;;;;5092122;28;792;-71
2022/07/01 00:43:18;;;;;;;;;;;;;;;;;;5092370;28;1097;-72
2022/07/01 00:45:45;;;;;;;;;;;;;;;;;;5093485;28;1910;-72
2022/07/01 00:48:11;;;;;;;;;;;;;;;;;;5093068;28;1047;-71
2022/07/01 00:50:37;;;;;;;;;;;;;;;;;;5092079;28;2162;-71
2022/07/01 00:53:04;;;;;;;;;;;;;;;;;;5092520;28;1220;-72
2022/07/01 00:55:31;;;;;;;;;;;;;;;;;;5093834;28;1312;-72
2022/07/01 00:57:57;;;;;;;;;;;;;;;;;;5092686;28;1067;-72
2022/07/01 01:00:23;;;;;;;;;;;;;;;;;;5093339;28;861;-71
2022/07/01 01:02:49;;;;;;;;;;;;;;;;;;5093514;28;778;-71
2022/07/01 01:05:17;;;;;;;;;;;;;;;;;;5093451;28;1910;-71
2022/07/01 01:07:43;;;;;;;;;;;;;;;;;;5091387;28;889;-71
2022/07/01 01:10:13;;;;;;;;;;;;;;;;;;5093245;28;1130;-71
2022/07/01 01:12:39;;;;;;;;;;;;;;;;;;5092986;28;837;-72
2022/07/01 01:15:06;;;;;;;;;;;;;;;;;;5092991;28;1282;-71
2022/07/01 01:17:32;;;;;;;;;;;;;;;;;;5092339;28;687;-72
2022/07/01 01:19:58;;;;;;;;;;;;;;;;;;5092909;28;928;-72
2022/07/01 01:22:26;;;;;;;;;;;;;;;;;;5093223;28;1062;-72
2022/07/01 01:24:52;;;;;;;;;;;;;;;;;;5093037;28;1919;-71
2022/07/01 01:27:18;;;;;;;;;;;;;;;;;;5091890;28;913;-71
2022/07/01 01:29:44;;;;;;;;;;;;;;;;;;5092578;28;787;-71
2022/07/01 01:32:11;;;;;;;;;;;;;;;;;;5092927;28;917;-73
2022/07/01 01:34:38;;;;;;;;;;;;;;;;;;5092608;28;1296;-72
2022/07/01 01:37:04;;;;;;;;;;;;;;;;;;5092198;28;1075;-71
2022/07/01 01:39:32;;;;;;;;;;;;;;;;;;5092670;28;956;-71
2022/07/01 01:41:58;;;;;;;;;;;;;;;;;;5092441;28;794;-72
2022/07/01 01:44:24;;;;;;;;;;;;;;;;;;5092400;28;1976;-72
2022/07/01 01:46:50;;;;;;;;;;;;;;;;;;5091791;28;841;-72
2022/07/01 01:49:17;;;;;;;;;;;;;;;;;;5090920;28;1107;-72
2022/07/01 01:51:43;;;;;;;;;;;;;;;;;;5058627;28;1433;-72
2022/07/01 01:54:09;;;;;;;;;;;;;;;;;;5052107;28;1374;-72
2022/07/01 01:56:37;;;;;;;;;;;;;;;;;;5051225;28;861;-71
2022/07/01 01:59:04;;;;;;;;;;;;;;;;;;5050534;28;1158;-72
2022/07/01 02:01:30;;;;;;;;;;;;;;;;;;5052001;28;1134;-72
2022/07/01 02:03:58;;;;;;;;;;;;;;;;;;5051792;28;1310;-72
2022/07/01 02:06:24;;;;;;;;;;;;;;;;;;5050922;28;1980;-71
2022/07/01 02:08:51;;;;;;;;;;;;;;;;;;5050261;28;1099;-71
2022/07/01 02:11:17;;;;;;;;;;;;;;;;;;5051822;28;825;-72
2022/07/01 02:13:45;;;;;;;;;;;;;;;;;;5051331;28;1350;-72
2022/07/01 02:16:11;;;;;;;;;;;;;;;;;;5049705;28;1218;-72
2022/07/01 02:18:37;;;;;;;;;;;;;;;;;;5049973;28;1147;-72
2022/07/01 02:21:04;;;;;;;;;;;;;;;;;;5051643;28;767;-72
2022/07/01 02:23:30;;;;;;;;;;;;;;;;;;5050152;28;1356;-72
2022/07/01 02:25:56;;;;;;;;;;;;;;;;;;5051371;28;1977;-71
2022/07/01 02:28:22;;;;;;;;;;;;;;;;;;5050452;28;1120;-72
2022/07/01 02:30:50;;;;;;;;;;;;;;;;;;5051346;28;1114;-71
2022/07/01 02:33:16;;;;;;;;;;;;;;;;;;5051307;28;735;-72
2022/07/01 02:35:42;;;;;;;;;;;;;;;;;;5051034;28;1408;-71
2022/07/01 02:38:09;;;;;;;;;;;;;;;;;;5050530;28;995;-72
2022/07/01 02:40:37;;;;;;;;;;;;;;;;;;5049981;28;1167;-71
2022/07/01 02:43:03;;;;;;;;;;;;;;;;;;5049637;28;2395;-71
2022/07/01 02:45:29;;;;;;;;;;;;;;;;;;5064869;28;1909;-71
2022/07/01 02:47:57;;;;;;;;;;;;;;;;;;5069850;28;1133;-71
2022/07/01 02:50:23;;;;;;;;;;;;;;;;;;5071159;28;1062;-71
2022/07/01 02:52:49;;;;;;;;;;;;;;;;;;5071015;28;840;-71
2022/07/01 02:55:15;;;;;;;;;;;;;;;;;;5070992;28;1309;-71
2022/07/01 02:57:42;;;;;;;;;;;;;;;;;;5070250;28;976;-71
2022/07/01 03:00:09;;;;;;;;;;;;;;;;;;5070901;28;1039;-71
2022/07/01 03:02:36;;;;;;;;;;;;;;;;;;5069196;28;1186;-71
2022/07/01 03:05:04;;;;;;;;;;;;;;;;;;5070326;28;1910;-71
2022/07/01 03:07:30;;;;;;;;;;;;;;;;;;5069741;28;1119;-71
2022/07/01 03:09:56;;;;;;;;;;;;;;;;;;5070765;28;1043;-71
2022/07/01 03:12:27;;;;;;;;;;;;;;;;;;5070912;28;1047;-71
2022/07/01 03:14:53;;;;;;;;;;;;;;;;;;5070864;28;1288;-70
2022/07/01 03:17:19;;;;;;;;;;;;;;;;;;5069599;28;1056;-71
2022/07/01 03:19:46;;;;;;;;;;;;;;;;;;5070882;28;1043;-71
2022/07/01 03:22:13;;;;;;;;;;;;;;;;;;5070522;28;1004;-71
2022/07/01 03:24:39;;;;;;;;;;;;;;;;;;5070760;28;1286;-71
2022/07/01 03:27:05;;;;;;;;;;;;;;;;;;5069697;28;1996;-71
2022/07/01 03:29:32;;;;;;;;;;;;;;;;;;5070481;28;807;-71
2022/07/01 03:31:58;;;;;;;;;;;;;;;;;;5070481;28;1051;-71
2022/07/01 03:34:24;;;;;;;;;;;;;;;;;;5070510;28;1280;-71
2022/07/01 03:36:50;;;;;;;;;;;;;;;;;;5070041;28;864;-71
2022/07/01 03:39:18;;;;;;;;;;;;;;;;;;5068896;28;1310;-71
2022/07/01 03:41:44;;;;;;;;;;;;;;;;;;5070558;28;1174;-71
2022/07/01 03:44:10;;;;;;;;;;;;;;;;;;5068702;28;1285;-71
2022/07/01 03:46:37;;;;;;;;;;;;;;;;;;5069829;28;1921;-71
2022/07/01 03:49:03;;;;;;;;;;;;;;;;;;5069070;28;1325;-71
2022/07/01 03:51:30;;;;;;;;;;;;;;;;;;5070523;28;866;-71
2022/07/01 03:56:41;;;;;;;;;;;;;;;;;;5069907;28;953;-71
2022/07/01 03:59:08;;;;;;;;;;;;;;;;;;5068332;28;1462;-71
2022/07/01 04:01:34;;;;;;;;;;;;;;;;;;5050294;28;1056;-71
2022/07/01 04:04:01;;;;;;;;;;;;;;;;;;5049858;28;1309;-71
2022/07/01 04:06:27;;;;;;;;;;;;;;;;;;5049448;28;1980;-71
2022/07/01 04:08:53;;;;;;;;;;;;;;;;;;5050497;28;1107;-71
2022/07/01 04:11:19;;;;;;;;;;;;;;;;;;5050262;28;893;-71
2022/07/01 04:13:50;;;;;;;;;;;;;;;;;;5049989;28;1364;-71
2022/07/01 04:16:16;;;;;;;;;;;;;;;;;;5053182;28;1161;-71
2022/07/01 04:18:42;;;;;;;;;;;;;;;;;;5053943;28;858;-73
2022/07/01 04:23:52;;;;;;;;;;;;;;;;;;5083825;28;1388;-74
2022/07/01 04:26:19;;;;;;;;;;;;;;;;;;5077564;28;1910;-74
2022/07/01 04:28:46;;;;;;;;;;;;;;;;;;5076673;28;1297;-74
2022/07/01 04:31:12;;;;;;;;;;;;;;;;;;5078490;28;1541;-73
2022/07/01 04:33:38;;;;;;;;;;;;;;;;;;5068552;28;1464;-74
2022/07/01 04:36:05;;;;;;;;;;;;;;;;;;5081032;28;1442;-74
2022/07/01 04:38:31;;;;;;;;;;;;;;;;;;5085436;28;1214;-74
2022/07/01 04:43:41;;;;;;;;;;;;;;;;;;5078284;28;1411;-74
2022/07/01 04:46:09;;;;;;;;;;;;;;;;;;5076066;28;1977;-73
2022/07/01 04:48:35;;;;;;;;;;;;;;;;;;5075630;28;1395;-74
2022/07/01 04:51:01;;;;;;;;;;;;;;;;;;5075558;28;1180;-74
2022/07/01 04:53:27;;;;;;;;;;;;;;;;;;5075664;28;1497;-74
2022/07/01 04:55:53;;;;;;;;;;;;;;;;;;5091011;28;1109;-74
2022/07/01 04:58:19;;;;;;;;;;;;;;;;;;5093014;28;928;-74
2022/07/01 05:00:48;;;;;;;;;;;;;;;;;;5095023;28;1220;-74
2022/07/01 05:03:16;;;;;;;;;;;;;;;;;;5094363;28;1111;-74
2022/07/01 05:05:42;;;;;;;;;;;;;;;;;;5092225;28;1910;-74
2022/07/01 05:08:08;;;;;;;;;;;;;;;;;;5092221;28;877;-74
2022/07/01 05:10:35;;;;;;;;;;;;;;;;;;5093684;28;1262;-74
2022/07/01 05:13:01;;;;;;;;;;;;;;;;;;5093491;28;945;-75
2022/07/01 05:15:27;;;;;;;;;;;;;;;;;;5093400;28;1270;-75
2022/07/01 05:23:28;;;;;;;;;;;;;;;;;;4993337;28;1457;-73
2022/07/01 05:25:54;;;;;;;;;;;;;;;;;;5070611;28;1930;-73
2022/07/01 05:28:20;;;;;;;;;;;;;;;;;;5074939;28;1060;-74
2022/07/01 05:30:46;;;;;;;;;;;;;;;;;;5070952;28;1167;-73
2022/07/01 05:33:12;;;;;;;;;;;;;;;;;;5050911;28;1576;-74
2022/07/01 05:35:40;;;;;;;;;;;;;;;;;;5049978;28;1330;-74
2022/07/01 05:38:06;;;;;;;;;;;;;;;;;;5050553;28;1228;-74
2022/07/01 05:40:32;;;;;;;;;;;;;;;;;;5052305;28;973;-74
2022/07/01 05:42:59;;;;;;;;;;;;;;;;;;5068285;28;956;-74
2022/07/01 05:45:25;;;;;;;;;;;;;;;;;;5071641;28;1918;-74
2022/07/01 05:47:51;;;;;;;;;;;;;;;;;;5070554;28;941;-74
2022/07/01 05:50:17;;;;;;;;;;;;;;;;;;5071946;28;1071;-74
2022/07/01 05:52:45;;;;;;;;;;;;;;;;;;5072078;28;849;-74
2022/07/01 05:55:12;;;;;;;;;;;;;;;;;;5082163;28;1556;-73
2022/07/01 05:57:38;;;;;;;;;;;;;;;;;;5090760;28;1041;-73
2022/07/01 06:00:04;;;;;;;;;;;;;;;;;;5073967;28;1461;-74
2022/07/01 06:02:37;;;;;;;;;;;;;;;;;;5087114;28;1177;-74
2022/07/01 06:05:04;;;;;;;;;;;;;;;;;;5077958;28;1412;-74
2022/07/01 06:07:30;;;;;;;;;;;;;;;;;;5082338;28;1969;-74
2022/07/01 06:09:58;;;;;;;;;;;;;;;;;;5073601;28;1341;-74
2022/07/01 06:12:24;;;;;;;;;;;;;;;;;;5078205;28;1405;-74
2022/07/01 06:14:50;;;;;;;;;;;;;;;;;;5070057;28;1416;-74
2022/07/01 06:17:17;;;;;;;;;;;;;;;;;;5070697;28;1521;-75
2022/07/01 06:19:43;;;;;;;;;;;;;;;;;;5085021;28;1219;-74
2022/07/01 06:22:09;;;;;;;;;;;;;;;;;;5084327;28;955;-74
2022/07/01 06:24:35;;;;;;;;;;;;;;;;;;5074269;28;1408;-74
2022/07/01 06:27:04;;;;;;;;;;;;;;;;;;5075541;28;1981;-74
2022/07/01 06:29:30;;;;;;;;;;;;;;;;;;5072806;28;1709;-73
2022/07/01 06:31:56;;;;;;;;;;;;;;;;;;5087674;28;1262;-73
2022/07/01 06:34:23;;;;;;;;;;;;;;;;;;5082949;28;1405;-73
2022/07/01 06:36:49;;;;;;;;;;;;;;;;;;5077618;28;1386;-74
2022/07/01 06:39:15;;;;;;;;;;;;;;;;;;5073784;28;1472;-74
2022/07/01 06:41:41;;;;;;;;;;;;;;;;;;5071538;28;1425;-74
2022/07/01 06:44:09;;;;;;;;;;;;;;;;;;5077292;28;1367;-74
2022/07/01 06:46:35;;;;;;;;;;;;;;;;;;5080628;28;1922;-74
2022/07/01 06:49:01;;;;;;;;;;;;;;;;;;5090763;28;953;-74
2022/07/01 06:51:27;;;;;;;;;;;;;;;;;;5074853;28;1317;-74
2022/07/01 06:53:54;;;;;;;;;;;;;;;;;;5063180;28;1408;-74
2022/07/01 06:56:20;;;;;;;;;;;;;;;;;;5076673;28;1456;-75
2022/07/01 06:58:46;;;;;;;;;;;;;;;;;;5070783;28;1398;-74
2022/07/01 07:01:14;;;;;;;;;;;;;;;;;;5074382;28;1413;-74
2022/07/01 07:03:40;;;;;;;;;;;;;;;;;;5078273;28;1513;-74
2022/07/01 07:06:06;;;;;;;;;;;;;;;;;;5088278;28;1942;-74
2022/07/01 07:08:32;;;;;;;;;;;;;;;;;;5081345;28;1510;-74
2022/07/01 07:10:59;;;;;;;;;;;;;;;;;;5078608;28;1452;-74
2022/07/01 07:13:25;;;;;;;;;;;;;;;;;;5074129;28;1356;-74
2022/07/01 07:15:51;;;;;;;;;;;;;;;;;;5060812;28;1421;-74
2022/07/01 07:18:19;;;;;;;;;;;;;;;;;;5072244;28;1099;-74
2022/07/01 07:20:47;;;;;;;;;;;;;;;;;;5065893;28;1364;-73
2022/07/01 07:23:13;;;;;;;;;;;;;;;;;;5060513;28;1472;-73
2022/07/01 07:25:39;;;;;;;;;;;;;;;;;;5074209;28;1409;-73
2022/07/01 07:28:05;;;;;;;;;;;;;;;;;;5079131;28;1910;-73
2022/07/01 07:30:32;;;;;;;;;;;;;;;;;;5079638;28;1424;-73
2022/07/01 07:32:58;;;;;;;;;;;;;;;;;;5081649;28;1381;-73
2022/07/01 07:35:25;;;;;;;;;;;;;;;;;;5082021;28;1471;-73
2022/07/01 07:37:51;;;;;;;;;;;;;;;;;;5072072;28;1370;-74
2022/07/01 07:40:18;;;;;;;;;;;;;;;;;;5070888;28;1121;-74
2022/07/01 07:42:45;;;;;;;;;;;;;;;;;;5075209;28;1495;-74
2022/07/01 07:45:13;;;;;;;;;;;;;;;;;;5084935;28;1382;-73
2022/07/01 07:47:40;;;;;;;;;;;;;;;;;;5073167;28;1921;-75
2022/07/01 07:50:07;;;;;;;;;;;;;;;;;;5052744;28;655;-74
2022/07/01 07:52:35;;;;;;;;;;;;;;;;;;5055999;28;878;-74
2022/07/01 07:55:02;;;;;;;;;;;;;;;;;;5053757;28;1326;-74
2022/07/01 07:57:28;;;;;;;;;;;;;;;;;;5055596;28;1242;-73
2022/07/01 07:59:55;;;;;;;;;;;;;;;;;;5071388;28;1097;-73
2022/07/01 08:02:22;;;;;;;;;;;;;;;;;;5052537;28;886;-73
2022/07/01 08:04:48;;;;;;;;;;;;;;;;;;5070972;28;1866;-73
2022/07/01 08:07:14;;;;;;;;;;;;;;;;;;5077159;28;1922;-72
2022/07/01 08:09:46;;;;;;;;;;;;;;;;;;5078721;28;1358;-73
2022/07/01 08:12:12;;;;;;;;;;;;;;;;;;5074389;28;1377;-74
2022/07/01 08:14:38;;;;;;;;;;;;;;;;;;5079281;28;1410;-73
2022/07/01 08:17:04;;;;;;;;;;;;;;;;;;5064281;28;1393;-72
2022/07/01 08:19:30;;;;;;;;;;;;;;;;;;5072732;28;1156;-73
2022/07/01 08:21:56;;;;;;;;;;;;;;;;;;5068226;28;1000;-73
2022/07/01 08:24:23;;;;;;;;;;;;;;;;;;5063147;28;1498;-73
2022/07/01 08:26:50;;;;;;;;;;;;;;;;;;5063588;28;1978;-74
2022/07/01 08:29:17;;;;;;;;;;;;;;;;;;5077311;28;1472;-74
2022/07/01 08:31:43;;;;;;;;;;;;;;;;;;5082197;28;1197;-74
2022/07/01 08:34:10;;;;;;;;;;;;;;;;;;5077568;28;1507;-74
2022/07/01 08:36:36;;;;;;;;;;;;;;;;;;5088658;28;1362;-75
2022/07/01 08:39:02;;;;;;;;;;;;;;;;;;5064707;28;1130;-74
2022/07/01 08:41:28;;;;;;;;;;;;;;;;;;5057239;28;1119;-74
2022/07/01 08:43:56;;;;;;;;;;;;;;;;;;5080389;28;1499;-74
2022/07/01 08:46:22;;;;;;;;;;;;;;;;;;5066272;28;1922;-75
2022/07/01 08:48:48;;;;;;;;;;;;;;;;;;5078611;28;1492;-73
2022/07/01 08:51:15;;;;;;;;;;;;;;;;;;5084975;28;1480;-74
2022/07/01 08:53:41;;;;;;;;;;;;;;;;;;5092021;28;1424;-73
2022/07/01 08:58:51;;;;;;;;;;;;;;;;;;5080621;28;1455;-74
2022/07/01 09:01:20;;;;;;;;;;;;;;;;;;5083130;28;1140;-74
2022/07/01 09:03:47;;;;;;;;;;;;;;;;;;5090954;28;1341;-74
2022/07/01 09:06:14;;;;;;;;;;;;;;;;;;5080785;28;1386;-74
2022/07/01 09:08:40;;;;;;;;;;;;;;;;;;5080462;28;1918;-74
2022/07/01 09:11:13;;;;;;;;;;;;;;;;;;5080159;28;1462;-74
2022/07/01 09:13:40;;;;;;;;;;;;;;;;;;5074700;28;1503;-74
2022/07/01 09:16:11;;;;;;;;;;;;;;;;;;5083820;28;1144;-75
2022/07/01 09:18:38;;;;;;;;;;;;;;;;;;5091838;28;1133;-74
2022/07/01 09:21:07;;;;;;;;;;;;;;;;;;5092655;28;1036;-74
2022/07/01 09:23:33;;;;;;;;;;;;;;;;;;5085282;28;1404;-74
2022/07/01 09:25:59;;;;;;;;;;;;;;;;;;5084069;28;1191;-74
2022/07/01 09:28:26;;;;;;;;;;;;;;;;;;5090907;28;1985;-74
2022/07/01 09:30:53;;;;;;;;;;;;;;;;;;5080460;28;1377;-74
2022/07/01 09:33:20;;;;;;;;;;;;;;;;;;5083324;28;1212;-74
2022/07/01 09:35:49;;;;;;;;;;;;;;;;;;5075229;28;1397;-74
2022/07/01 09:38:16;;;;;;;;;;;;;;;;;;5083098;28;1386;-74
2022/07/01 09:40:49;;;;;;;;;;;;;;;;;;5082365;28;1303;-74
2022/07/01 09:43:16;;;;;;;;;;;;;;;;;;5091197;28;1150;-74
2022/07/01 09:45:49;;;;;;;;;;;;;;;;;;5082851;28;1420;-74
2022/07/01 09:48:15;;;;;;;;;;;;;;;;;;5057131;28;1912;-74
2022/07/01 09:50:41;;;;;;;;;;;;;;;;;;5081565;28;2351;-74
2022/07/01 09:53:08;;;;;;;;;;;;;;;;;;5071269;28;1417;-74
2022/07/01 09:55:35;;;;;;;;;;;;;;;;;;5070080;28;1413;-74
2022/07/01 09:58:01;;;;;;;;;;;;;;;;;;5076132;28;1366;-74
2022/07/01 10:00:28;;;;;;;;;;;;;;;;;;5069233;28;1532;-74
2022/07/01 10:02:54;;;;;;;;;;;;;;;;;;5079602;28;1258;-74
2022/07/01 10:05:23;;;;;;;;;;;;;;;;;;5067191;28;1529;-73
2022/07/01 10:07:52;;;;;;;;;;;;;;;;;;5073801;28;1938;-73
2022/07/01 10:10:24;;;;;;;;;;;;;;;;;;5079718;28;1381;-72
2022/07/01 10:12:50;;;;;;;;;;;;;;;;;;5070631;28;893;-72
2022/07/01 10:15:17;;;;;;;;;;;;;;;;;;5068168;28;1411;-73
2022/07/01 10:17:44;;;;;;;;;;;;;;;;;;5074131;28;1357;-72
2022/07/01 10:20:11;;;;;;;;;;;;;;;;;;5079678;28;1583;-72
2022/07/01 10:22:37;;;;;;;;;;;;;;;;;;5070785;28;1147;-72
2022/07/01 10:25:22;;;;;;;;;;;;;;;;;;5070485;28;1316;-72
2022/07/01 10:30:50;;;;;;;;;;;;;;;;;;5103660;27;1430;-73
2022/07/01 10:33:27;;;;;;;;;;;;;;;;;;5090619;28;1482;-73
2022/07/01 10:35:53;;;;;;;;;;;;;;;;;;5063661;28;1142;-74
2022/07/01 10:38:19;;;;;;;;;;;;;;;;;;5021728;28;1369;-73
2022/07/01 10:40:48;;;;;;;;;;;;;;;;;;5018622;28;1228;-74
2022/07/01 10:43:15;;;;;;;;;;;;;;;;;;5023191;28;844;-76
2022/07/01 10:45:43;;;;;;;;;;;;;;;;;;5020416;28;1459;-75
2022/07/01 10:48:20;;;;;;;;;;;;;;;;;;4999079;28;1466;-77
2022/07/01 10:50:46;;;;;;;;;;;;;;;;;;4998017;28;866;-74
2022/07/01 10:53:13;;;;;;;;;;;;;;;;;;5003772;28;1524;-74
2022/07/01 10:55:40;;;;;;;;;;;;;;;;;;5019952;28;1359;-74
2022/07/01 10:58:06;;;;;;;;;;;;;;;;;;5020908;28;973;-73
2022/07/01 11:00:34;;;;;;;;;;;;;;;;;;5014154;28;880;-74
2022/07/01 11:03:11;;;;;;;;;;;;;;;;;;5017300;28;1126;-74
2022/07/01 11:05:39;;;;;;;;;;;;;;;;;;5015168;28;1305;-74
2022/07/01 11:08:06;;;;;;;;;;;;;;;;;;5018499;28;893;-72
2022/07/01 11:10:32;;;;;;;;;;;;;;;;;;5023203;28;1993;-75
2022/07/01 11:13:00;;;;;;;;;;;;;;;;;;5023267;28;849;-72
2022/07/01 11:15:27;;;;;;;;;;;;;;;;;;5037479;28;1645;-74
2022/07/01 11:17:55;;;;;;;;;;;;;;;;;;5021771;28;1762;-72
2022/07/01 11:20:22;;;;;;;;;;;;;;;;;;5019558;28;911;-74
2022/07/01 11:22:50;;;;;;;;;;;;;;;;;;5020539;28;901;-73
2022/07/01 11:25:17;;;;;;;;;;;;;;;;;;5017687;28;1285;-72
2022/07/01 11:27:45;;;;;;;;;;;;;;;;;;5022377;28;900;-74
2022/07/01 11:30:12;;;;;;;;;;;;;;;;;;5037164;28;1937;-72
2022/07/01 11:32:41;;;;;;;;;;;;;;;;;;5042838;28;790;-72
2022/07/01 11:39:21;;;;;;;;;;;;;;;;;;5042942;28;1285;-72
2022/07/01 11:40:50;;;;;;;;;;;;;;;;;;5047465;28;1035;-72
2022/07/01 11:43:20;;;;;;;;;;;;;;;;;;5029063;28;897;-71
2022/07/01 11:45:47;;;;;;;;;;;;;;;;;;5027481;28;1332;-71
2022/07/01 11:48:14;;;;;;;;;;;;;;;;;;5040462;28;1142;-71
2022/07/01 11:50:40;;;;;;;;;;;;;;;;;;5027429;28;1938;-71
2022/07/01 11:53:09;;;;;;;;;;;;;;;;;;5028617;28;963;-71
2022/07/01 11:55:35;;;;;;;;;;;;;;;;;;5028996;28;1280;-72
2022/07/01 11:58:02;;;;;;;;;;;;;;;;;;5029406;28;907;-72
2022/07/01 12:00:33;;;;;;;;;;;;;;;;;;5042044;28;1138;-70
2022/07/01 12:03:00;;;;;;;;;;;;;;;;;;5026802;28;924;-71
2022/07/01 12:05:26;;;;;;;;;;;;;;;;;;5040591;28;1292;-73
2022/07/01 12:07:53;;;;;;;;;;;;;;;;;;5028701;28;881;-71
2022/07/01 12:10:25;;;;;;;;;;;;;;;;;;5027861;28;1997;-72
2022/07/01 12:12:51;;;;;;;;;;;;;;;;;;5027711;28;1359;-71
2022/07/01 12:15:18;;;;;;;;;;;;;;;;;;5028370;28;1364;-70
2022/07/01 12:17:44;;;;;;;;;;;;;;;;;;5022372;28;1146;-71
2022/07/01 12:20:10;;;;;;;;;;;;;;;;;;5028986;28;921;-71
2022/07/01 12:22:37;;;;;;;;;;;;;;;;;;5021501;28;1004;-72
2022/07/01 12:25:07;;;;;;;;;;;;;;;;;;5024374;28;1310;-71
2022/07/01 12:27:35;;;;;;;;;;;;;;;;;;5029502;28;885;-71
2022/07/01 12:30:03;;;;;;;;;;;;;;;;;;5026908;28;1954;-72
2022/07/01 12:32:32;;;;;;;;;;;;;;;;;;5015777;22;3664;-79
2022/07/01 12:34:59;;;;;;;;;;;;;;;;;;4949645;28;1005;-77
2022/07/01 12:37:26;;;;;;;;;;;;;;;;;;4967367;28;1087;-77
2022/07/01 12:39:53;;;;;;;;;;;;;;;;;;4968251;28;945;-76
2022/07/01 12:42:20;;;;;;;;;;;;;;;;;;4973826;28;1318;-77
2022/07/01 12:44:48;;;;;;;;;;;;;;;;;;4988367;28;945;-76
2022/07/01 12:47:18;;;;;;;;;;;;;;;;;;4986765;28;2015;-76
2022/07/01 12:49:45;;;;;;;;;;;;;;;;;;4986016;28;1957;-76
2022/07/01 12:52:23;;;;;;;;;;;;;;;;;;4981885;28;1290;-77
2022/07/01 12:54:49;;;;;;;;;;;;;;;;;;4988585;28;866;-76
2022/07/01 12:57:16;;;;;;;;;;;;;;;;;;4988321;28;758;-77
2022/07/01 12:59:42;;;;;;;;;;;;;;;;;;4987445;28;882;-77
2022/07/01 13:02:10;;;;;;;;;;;;;;;;;;4967568;28;1323;-78
2022/07/01 13:04:36;;;;;;;;;;;;;;;;;;4971138;28;1260;-77
2022/07/01 13:07:03;;;;;;;;;;;;;;;;;;4987947;28;877;-77
2022/07/01 13:09:30;;;;;;;;;;;;;;;;;;4979537;28;2010;-76
2022/07/01 13:11:56;;;;;;;;;;;;;;;;;;4984230;28;1298;-77
2022/07/01 13:14:23;;;;;;;;;;;;;;;;;;4987510;28;1157;-76
2022/07/01 13:16:49;;;;;;;;;;;;;;;;;;4967394;28;1341;-76
2022/07/01 13:19:18;;;;;;;;;;;;;;;;;;4985184;28;877;-75
2022/07/01 13:21:44;;;;;;;;;;;;;;;;;;4966188;28;1365;-75
2022/07/01 13:24:11;;;;;;;;;;;;;;;;;;4987533;28;874;-76
2022/07/01 13:26:38;;;;;;;;;;;;;;;;;;4981960;28;854;-76
2022/07/01 13:29:04;;;;;;;;;;;;;;;;;;4984855;28;940;-76
2022/07/01 13:31:31;;;;;;;;;;;;;;;;;;5048768;28;1975;-77
2022/07/01 13:33:57;;;;;;;;;;;;;;;;;;5031927;28;2264;-75
2022/07/01 13:36:24;;;;;;;;;;;;;;;;;;5050743;28;1095;-77
2022/07/01 13:38:51;;;;;;;;;;;;;;;;;;5050943;28;1056;-77
2022/07/01 13:41:17;;;;;;;;;;;;;;;;;;5051481;28;1323;-76
2022/07/01 13:43:43;;;;;;;;;;;;;;;;;;5033486;28;1281;-77
2022/07/01 13:46:09;;;;;;;;;;;;;;;;;;5051246;28;1067;-77
2022/07/01 13:48:35;;;;;;;;;;;;;;;;;;5033342;28;1124;-76
2022/07/01 13:51:02;;;;;;;;;;;;;;;;;;5051141;28;1985;-77
2022/07/01 13:53:29;;;;;;;;;;;;;;;;;;5033354;28;1401;-77
2022/07/01 13:55:55;;;;;;;;;;;;;;;;;;5051798;28;893;-77
2022/07/01 13:58:21;;;;;;;;;;;;;;;;;;5050877;28;1115;-77
2022/07/01 14:00:48;;;;;;;;;;;;;;;;;;5051536;28;788;-77
2022/07/01 14:03:14;;;;;;;;;;;;;;;;;;5050858;28;1268;-77
2022/07/01 14:05:40;;;;;;;;;;;;;;;;;;5051154;28;861;-78
2022/07/01 14:08:06;;;;;;;;;;;;;;;;;;5032767;28;1111;-77
2022/07/01 14:10:35;;;;;;;;;;;;;;;;;;5051034;28;1910;-77
2022/07/01 14:13:02;;;;;;;;;;;;;;;;;;5050739;28;1266;-76
2022/07/01 14:15:28;;;;;;;;;;;;;;;;;;5050993;28;1064;-77
2022/07/01 14:17:54;;;;;;;;;;;;;;;;;;5049369;28;1428;-76
2022/07/01 14:20:20;;;;;;;;;;;;;;;;;;5050730;28;1699;-77
2022/07/01 14:22:46;;;;;;;;;;;;;;;;;;5032729;28;1648;-77
2022/07/01 14:25:12;;;;;;;;;;;;;;;;;;5066377;28;1297;-76
2022/07/01 14:27:40;;;;;;;;;;;;;;;;;;5049703;28;1142;-76
2022/07/01 14:30:07;;;;;;;;;;;;;;;;;;5050675;28;1918;-77
2022/07/01 14:32:34;;;;;;;;;;;;;;;;;;5050582;28;1318;-76
2022/07/01 14:35:02;;;;;;;;;;;;;;;;;;5050642;28;1099;-77
2022/07/01 14:37:28;;;;;;;;;;;;;;;;;;5049710;28;889;-77
2022/07/01 14:39:57;;;;;;;;;;;;;;;;;;5050669;28;1052;-76
2022/07/01 14:42:23;;;;;;;;;;;;;;;;;;5050625;28;1395;-77
2022/07/01 14:44:52;;;;;;;;;;;;;;;;;;5050419;28;1001;-77
2022/07/01 14:47:18;;;;;;;;;;;;;;;;;;5049663;28;750;-77
2022/07/01 14:49:44;;;;;;;;;;;;;;;;;;5050357;28;1910;-77
2022/07/01 14:52:11;;;;;;;;;;;;;;;;;;5050614;28;1378;-77
2022/07/01 14:54:37;;;;;;;;;;;;;;;;;;5032823;28;1236;-76
2022/07/01 14:57:04;;;;;;;;;;;;;;;;;;5049290;28;1003;-77
2022/07/01 14:59:30;;;;;;;;;;;;;;;;;;5050466;28;1044;-77
2022/07/01 15:02:02;;;;;;;;;;;;;;;;;;5032430;28;1397;-76
2022/07/01 15:04:28;;;;;;;;;;;;;;;;;;5050357;28;1072;-77
2022/07/01 15:06:54;;;;;;;;;;;;;;;;;;5049341;28;1068;-78
2022/07/01 15:09:21;;;;;;;;;;;;;;;;;;5050071;28;763;-78
2022/07/01 15:11:48;;;;;;;;;;;;;;;;;;5032259;28;1914;-77
2022/07/01 15:14:14;;;;;;;;;;;;;;;;;;5050303;28;1084;-77
2022/07/01 15:16:40;;;;;;;;;;;;;;;;;;5051168;28;791;-77
2022/07/01 15:19:08;;;;;;;;;;;;;;;;;;5036310;28;1281;-77
2022/07/01 15:21:34;;;;;;;;;;;;;;;;;;5054178;28;1302;-77
2022/07/01 15:24:00;;;;;;;;;;;;;;;;;;5036316;28;1424;-78
2022/07/01 15:26:26;;;;;;;;;;;;;;;;;;5053431;28;1071;-78
2022/07/01 15:28:52;;;;;;;;;;;;;;;;;;5054540;28;1072;-78
2022/07/01 15:31:18;;;;;;;;;;;;;;;;;;5054215;28;1914;-78
2022/07/01 15:33:45;;;;;;;;;;;;;;;;;;5053838;28;1123;-77
2022/07/01 15:36:12;;;;;;;;;;;;;;;;;;5035618;28;1574;-78
2022/07/01 15:38:38;;;;;;;;;;;;;;;;;;5053837;28;877;-78
2022/07/01 15:41:06;;;;;;;;;;;;;;;;;;5053984;28;1059;-78
2022/07/01 15:43:32;;;;;;;;;;;;;;;;;;5053900;28;1438;-77
2022/07/01 15:45:58;;;;;;;;;;;;;;;;;;5053635;28;1064;-78
2022/07/01 15:48:24;;;;;;;;;;;;;;;;;;5052760;28;920;-78
2022/07/01 15:50:51;;;;;;;;;;;;;;;;;;5035456;28;1980;-77
2022/07/01 15:53:20;;;;;;;;;;;;;;;;;;5053636;28;1329;-78
2022/07/01 15:55:46;;;;;;;;;;;;;;;;;;5053218;28;1056;-77
2022/07/01 15:58:13;;;;;;;;;;;;;;;;;;5052455;28;1060;-77
2022/07/01 16:00:40;;;;;;;;;;;;;;;;;;5053438;28;798;-77
2022/07/01 16:03:06;;;;;;;;;;;;;;;;;;5053288;28;1524;-77
2022/07/01 16:05:33;;;;;;;;;;;;;;;;;;5035447;28;1165;-77
2022/07/01 16:08:00;;;;;;;;;;;;;;;;;;5034118;28;913;-77
2022/07/01 16:10:32;;;;;;;;;;;;;;;;;;5053311;28;1973;-77
2022/07/01 16:12:58;;;;;;;;;;;;;;;;;;5035382;28;1382;-79
2022/07/01 16:15:25;;;;;;;;;;;;;;;;;;5035248;28;1147;-77
2022/07/01 16:17:51;;;;;;;;;;;;;;;;;;5051775;28;1083;-78
2022/07/01 16:20:17;;;;;;;;;;;;;;;;;;5035354;28;1222;-78
2022/07/01 16:22:43;;;;;;;;;;;;;;;;;;5052753;28;1303;-78
2022/07/01 16:25:11;;;;;;;;;;;;;;;;;;5052641;28;1119;-78
2022/07/01 16:27:39;;;;;;;;;;;;;;;;;;5066638;28;1514;-77
2022/07/01 16:30:06;;;;;;;;;;;;;;;;;;5052796;28;1048;-77
2022/07/01 16:32:32;;;;;;;;;;;;;;;;;;5067907;28;1913;-78
2022/07/01 16:34:58;;;;;;;;;;;;;;;;;;5052654;28;1060;-78
2022/07/01 16:37:26;;;;;;;;;;;;;;;;;;5051725;28;985;-78
2022/07/01 16:39:55;;;;;;;;;;;;;;;;;;5034679;28;1240;-77
2022/07/01 16:42:21;;;;;;;;;;;;;;;;;;5052520;28;1321;-77
2022/07/01 16:44:49;;;;;;;;;;;;;;;;;;5034262;28;1255;-77
2022/07/01 16:47:20;;;;;;;;;;;;;;;;;;5034421;28;1100;-78
2022/07/01 16:49:47;;;;;;;;;;;;;;;;;;5053013;28;1036;-77
2022/07/01 16:52:13;;;;;;;;;;;;;;;;;;5052475;28;1977;-79
2022/07/01 16:54:40;;;;;;;;;;;;;;;;;;5052248;28;1138;-78
2022/07/01 16:57:06;;;;;;;;;;;;;;;;;;5033529;28;1586;-78
2022/07/01 16:59:33;;;;;;;;;;;;;;;;;;5052296;28;870;-78
2022/07/01 17:02:01;;;;;;;;;;;;;;;;;;5051905;28;1384;-78
2022/07/01 17:04:27;;;;;;;;;;;;;;;;;;5052226;28;794;-77
2022/07/01 17:06:53;;;;;;;;;;;;;;;;;;5033497;28;1025;-77
2022/07/01 17:09:21;;;;;;;;;;;;;;;;;;5052021;28;984;-77
2022/07/01 17:11:47;;;;;;;;;;;;;;;;;;5051704;28;1977;-78
2022/07/01 17:14:13;;;;;;;;;;;;;;;;;;5051702;28;1100;-78
2022/07/01 17:16:39;;;;;;;;;;;;;;;;;;5033098;28;1323;-77
2022/07/01 17:19:07;;;;;;;;;;;;;;;;;;5051895;28;945;-77
2022/07/01 17:21:35;;;;;;;;;;;;;;;;;;5051742;28;1298;-78
2022/07/01 17:24:02;;;;;;;;;;;;;;;;;;5051589;28;1060;-78
2022/07/01 17:26:29;;;;;;;;;;;;;;;;;;5051626;28;819;-78